Time;durP1;ratioP1;P1;durP2;ratioP2;P2;SDS_P1;SDS_P2;PMS_P1;PMS_P2;Temp;Humidity;BMP_temperature;BMP_pressure;BME280_temperature;BME280_humidity;BME280_pressure;Samples;Min_cycle;Max_cycle;Signal;HPM_P1;HPM_P2
2022/10/16 00:01:18;;;;;;;3.03;2.70;;;16.30;99.90;;;;;;6185672;23;20501;-84
2022/10/16 00:03:46;;;;;;;3.07;2.77;;;16.30;99.90;;;;;;6185220;23;20416;-84
2022/10/16 00:06:13;;;;;;;2.33;2.23;;;16.30;99.90;;;;;;6186047;23;20410;-84
2022/10/16 00:08:41;;;;;;;3.20;2.57;;;16.30;99.90;;;;;;6185622;23;20422;-84
2022/10/16 00:11:11;;;;;;;2.80;2.30;;;16.30;99.90;;;;;;6185513;23;20435;-84
2022/10/16 00:13:41;;;;;;;2.30;2.10;;;16.30;99.90;;;;;;6185413;23;20516;-84
2022/10/16 00:16:10;;;;;;;3.50;2.57;;;16.30;99.90;;;;;;6185937;23;20791;-84
2022/10/16 00:18:38;;;;;;;3.03;2.17;;;16.30;99.90;;;;;;6185055;23;20476;-84
2022/10/16 00:21:07;;;;;;;2.17;2.03;;;16.30;99.90;;;;;;6185474;23;20996;-84
2022/10/16 00:23:35;;;;;;;2.73;2.50;;;16.20;99.90;;;;;;6185273;23;20445;-85
2022/10/16 00:26:04;;;;;;;2.90;2.70;;;16.20;99.90;;;;;;6185747;23;20422;-84
2022/10/16 00:28:32;;;;;;;2.80;2.60;;;16.20;99.90;;;;;;6185462;23;20437;-84
2022/10/16 00:31:03;;;;;;;2.73;2.43;;;16.10;99.90;;;;;;6185262;23;20431;-84
2022/10/16 00:33:29;;;;;;;2.43;2.23;;;16.10;99.90;;;;;;6185162;23;20436;-85
2022/10/16 00:35:58;;;;;;;2.50;2.37;;;16.00;99.90;;;;;;6185816;23;20410;-85
2022/10/16 00:38:25;;;;;;;2.60;2.40;;;15.90;99.90;;;;;;6188988;23;20433;-85
2022/10/16 00:40:52;;;;;;;3.80;2.50;;;15.80;99.90;;;;;;6193173;23;20755;-85
2022/10/16 00:43:36;;;;;;;2.60;2.40;;;15.80;99.90;;;;;;6193091;23;20500;-84
2022/10/16 00:46:10;;;;;;;3.40;3.10;;;15.70;99.90;;;;;;6191665;23;20398;-84
2022/10/16 00:48:38;;;;;;;4.30;3.57;;;15.70;99.90;;;;;;6190609;23;20397;-84
2022/10/16 00:51:06;;;;;;;3.37;3.17;;;15.70;99.90;;;;;;6191470;23;20433;-84
2022/10/16 00:53:33;;;;;;;7.57;3.60;;;15.60;99.90;;;;;;6191903;23;21017;-84
2022/10/16 00:56:01;;;;;;;3.30;3.00;;;15.60;99.90;;;;;;6191996;23;20481;-85
2022/10/16 00:58:28;;;;;;;3.30;3.10;;;15.50;99.90;;;;;;6190254;23;20406;-84
2022/10/16 01:00:55;;;;;;;3.17;2.40;;;15.50;99.90;;;;;;6189316;23;20450;-84
2022/10/16 01:03:30;;;;;;;3.30;3.00;;;15.50;99.90;;;;;;6189121;23;20386;-85
2022/10/16 01:06:10;;;;;;;2.67;2.47;;;15.50;99.90;;;;;;6189713;23;20404;-85
2022/10/16 01:08:46;;;;;;;3.13;2.77;;;15.60;99.90;;;;;;6186745;23;20421;-84
2022/10/16 01:11:20;;;;;;;2.77;2.50;;;15.60;99.90;;;;;;6186768;23;20429;-84
2022/10/16 01:13:54;;;;;;;2.60;2.33;;;15.60;99.90;;;;;;6187852;23;20425;-84
2022/10/16 01:16:29;;;;;;;2.70;2.50;;;15.60;99.90;;;;;;6186984;23;20715;-84
2022/10/16 01:19:03;;;;;;;2.03;1.93;;;15.70;99.90;;;;;;6188269;23;20394;-84
2022/10/16 01:21:35;;;;;;;7.93;2.67;;;15.70;99.90;;;;;;6186093;23;20442;-84
2022/10/16 01:24:09;;;;;;;4.03;2.80;;;15.70;99.90;;;;;;6185865;23;20397;-84
2022/10/16 01:27:01;;;;;;;2.13;1.93;;;15.70;99.90;;;;;;6185784;23;20394;-84
2022/10/16 01:29:32;;;;;;;3.53;2.93;;;15.70;99.90;;;;;;6184929;23;20785;-84
2022/10/16 01:32:02;;;;;;;3.60;3.30;;;15.60;99.90;;;;;;6184786;23;20438;-84
2022/10/16 01:34:34;;;;;;;3.10;2.80;;;15.60;99.90;;;;;;6185237;23;20438;-84
2022/10/16 01:37:07;;;;;;;2.70;2.50;;;15.50;99.90;;;;;;6185163;23;20394;-84
2022/10/16 01:39:38;;;;;;;3.80;2.93;;;15.50;99.90;;;;;;6184921;23;20405;-84
2022/10/16 01:42:12;;;;;;;3.33;3.13;;;15.50;99.90;;;;;;6185041;23;20514;-83
2022/10/16 01:44:40;;;;;;;3.40;3.10;;;15.40;99.90;;;;;;6185289;23;20787;-84
2022/10/16 01:47:10;;;;;;;6.53;3.23;;;15.40;99.90;;;;;;6184874;23;20424;-84
2022/10/16 01:49:39;;;;;;;3.70;3.00;;;15.40;99.90;;;;;;6184470;23;20410;-84
2022/10/16 01:52:10;;;;;;;3.57;2.90;;;15.40;99.90;;;;;;6185309;23;20430;-84
2022/10/16 01:54:40;;;;;;;3.07;2.33;;;15.40;99.90;;;;;;6184865;23;20437;-84
2022/10/16 01:57:09;;;;;;;2.97;2.70;;;15.40;99.90;;;;;;6185441;23;20463;-84
2022/10/16 01:59:41;;;;;;;3.43;2.20;;;15.50;99.90;;;;;;6184415;23;20989;-84
2022/10/16 02:02:11;;;;;;;6.20;3.00;;;15.50;99.90;;;;;;6184336;23;20452;-84
2022/10/16 02:04:43;;;;;;;3.63;2.20;;;15.50;99.90;;;;;;6184710;23;20472;-84
2022/10/16 02:07:11;;;;;;;2.83;2.63;;;15.60;99.90;;;;;;6184949;23;20394;-85
2022/10/16 02:09:40;;;;;;;2.93;2.73;;;15.60;99.90;;;;;;6184706;23;20440;-85
2022/10/16 02:12:14;;;;;;;3.80;3.40;;;15.50;99.90;;;;;;6184997;23;20495;-84
2022/10/16 02:14:41;;;;;;;4.20;3.20;;;15.60;99.90;;;;;;6184747;23;20449;-84
2022/10/16 02:17:12;;;;;;;3.27;2.63;;;15.60;99.90;;;;;;6184945;23;20529;-84
2022/10/16 02:19:39;;;;;;;3.20;2.90;;;15.60;99.90;;;;;;6184129;23;20399;-84
2022/10/16 02:22:09;;;;;;;3.10;2.90;;;15.70;99.90;;;;;;6185073;23;20456;-84
2022/10/16 02:24:44;;;;;;;2.50;2.30;;;15.70;99.90;;;;;;6184750;23;20394;-84
2022/10/16 02:27:17;;;;;;;3.30;3.00;;;15.70;99.90;;;;;;6184714;23;20455;-85
2022/10/16 02:29:51;;;;;;;4.13;2.83;;;15.70;99.90;;;;;;6184355;23;20394;-85
2022/10/16 02:32:22;;;;;;;3.40;2.97;;;15.70;99.90;;;;;;6184636;23;20436;-84
2022/10/16 02:34:49;;;;;;;3.43;3.23;;;15.70;99.90;;;;;;6184462;23;20484;-85
2022/10/16 02:37:18;;;;;;;5.20;3.37;;;15.70;99.90;;;;;;6184594;23;20726;-84
2022/10/16 02:39:45;;;;;;;3.10;2.80;;;15.70;99.90;;;;;;6184107;23;20424;-84
2022/10/16 02:42:13;;;;;;;3.90;2.60;;;15.70;99.90;;;;;;6184585;23;20434;-84
2022/10/16 02:44:40;;;;;;;2.90;2.70;;;15.70;99.90;;;;;;6184687;23;20418;-84
2022/10/16 02:47:07;;;;;;;3.00;2.70;;;15.70;99.90;;;;;;6184161;23;20424;-84
2022/10/16 02:49:34;;;;;;;5.13;2.80;;;15.80;99.90;;;;;;6184303;23;20413;-84
2022/10/16 02:52:01;;;;;;;3.10;2.90;;;15.80;99.90;;;;;;6184349;23;20509;-84
2022/10/16 02:54:28;;;;;;;2.93;2.73;;;15.70;99.90;;;;;;6184454;23;20507;-84
2022/10/16 02:56:55;;;;;;;3.10;2.80;;;15.70;99.90;;;;;;6184045;23;20932;-84
2022/10/16 02:59:23;;;;;;;2.70;2.50;;;15.70;99.90;;;;;;6184370;23;20414;-85
2022/10/16 03:01:50;;;;;;;3.10;2.90;;;15.70;99.90;;;;;;6184054;23;20446;-84
2022/10/16 03:04:17;;;;;;;4.00;3.30;;;15.70;99.90;;;;;;6184534;23;20463;-84
2022/10/16 03:06:43;;;;;;;3.27;2.97;;;15.70;99.90;;;;;;6184660;23;20424;-85
2022/10/16 03:09:10;;;;;;;4.20;3.40;;;15.60;99.90;;;;;;6184110;23;20901;-85
2022/10/16 03:11:37;;;;;;;3.20;3.00;;;15.60;99.90;;;;;;6184478;23;20434;-84
2022/10/16 03:14:04;;;;;;;2.77;2.57;;;15.60;99.90;;;;;;6184374;23;20797;-85
2022/10/16 03:16:32;;;;;;;2.97;2.67;;;15.60;99.90;;;;;;6190376;23;20417;-84
2022/10/16 03:18:59;;;;;;;3.33;2.80;;;15.70;99.90;;;;;;6192498;23;20422;-85
2022/10/16 03:21:26;;;;;;;2.90;2.70;;;15.70;99.90;;;;;;6190552;23;20436;-85
2022/10/16 03:23:52;;;;;;;5.20;3.30;;;15.70;99.90;;;;;;6191216;23;20494;-84
2022/10/16 03:26:19;;;;;;;2.70;2.47;;;15.70;99.90;;;;;;6186951;23;20424;-84
2022/10/16 03:28:46;;;;;;;3.00;2.57;;;15.70;99.90;;;;;;6186793;23;20415;-84
2022/10/16 03:31:13;;;;;;;3.53;3.23;;;15.70;99.90;;;;;;6186072;23;20432;-85
2022/10/16 03:33:41;;;;;;;3.60;3.30;;;15.70;99.90;;;;;;6186857;23;20420;-85
2022/10/16 03:36:08;;;;;;;3.57;3.27;;;15.70;99.90;;;;;;6187011;23;20494;-84
2022/10/16 03:38:35;;;;;;;3.90;2.97;;;15.70;99.90;;;;;;6187449;23;20905;-85
2022/10/16 03:41:02;;;;;;;2.83;2.53;;;15.70;99.90;;;;;;6189107;23;20516;-85
2022/10/16 03:43:28;;;;;;;2.57;2.37;;;15.70;99.90;;;;;;6188643;23;20421;-84
2022/10/16 03:45:55;;;;;;;3.00;2.50;;;15.70;99.90;;;;;;6189266;23;20406;-84
2022/10/16 03:48:22;;;;;;;3.33;2.93;;;15.70;99.90;;;;;;6189103;23;20440;-84
2022/10/16 03:50:51;;;;;;;2.83;2.73;;;15.70;99.90;;;;;;6188845;23;20426;-84
2022/10/16 03:53:19;;;;;;;3.53;2.13;;;15.70;99.90;;;;;;6188782;23;20449;-84
2022/10/16 03:55:46;;;;;;;3.17;2.97;;;15.60;99.90;;;;;;6188422;23;20517;-84
2022/10/16 03:58:13;;;;;;;3.37;3.07;;;15.70;99.90;;;;;;6189355;23;20503;-85
2022/10/16 04:00:42;;;;;;;2.60;1.93;;;15.60;99.90;;;;;;6188213;23;20414;-84
2022/10/16 04:03:09;;;;;;;2.10;2.00;;;15.60;99.90;;;;;;6188506;23;20701;-84
2022/10/16 04:05:36;;;;;;;2.60;1.60;;;15.60;99.90;;;;;;6188848;23;20735;-85
2022/10/16 04:08:04;;;;;;;3.00;2.80;;;15.60;99.90;;;;;;6187941;23;20409;-85
2022/10/16 04:10:32;;;;;;;2.60;2.40;;;15.60;99.90;;;;;;6188407;23;20417;-84
2022/10/16 04:12:59;;;;;;;3.00;2.70;;;15.60;99.90;;;;;;6189521;23;20761;-84
2022/10/16 04:15:26;;;;;;;2.30;2.20;;;15.60;99.90;;;;;;6188041;23;20443;-84
2022/10/16 04:17:53;;;;;;;3.13;2.83;;;15.60;99.90;;;;;;6187049;23;20909;-84
2022/10/16 04:20:20;;;;;;;2.90;2.60;;;15.60;99.90;;;;;;6187799;23;20465;-85
2022/10/16 04:22:47;;;;;;;2.53;2.43;;;15.60;99.90;;;;;;6188100;23;20782;-85
2022/10/16 04:25:15;;;;;;;3.23;3.03;;;15.60;99.90;;;;;;6188373;23;20407;-84
2022/10/16 04:27:42;;;;;;;2.70;2.50;;;15.60;99.90;;;;;;6187838;23;20409;-85
2022/10/16 04:30:09;;;;;;;2.70;2.10;;;15.60;99.90;;;;;;6186733;23;20501;-84
2022/10/16 04:32:36;;;;;;;2.97;2.07;;;15.60;99.90;;;;;;6185691;23;20434;-85
2022/10/16 04:35:03;;;;;;;1.80;1.70;;;15.60;99.90;;;;;;6185485;23;20440;-84
2022/10/16 04:37:30;;;;;;;2.20;2.07;;;15.50;99.90;;;;;;6185576;23;20421;-84
2022/10/16 04:39:57;;;;;;;3.30;2.67;;;15.50;99.90;;;;;;6184814;23;20489;-85
2022/10/16 04:42:25;;;;;;;2.57;2.47;;;15.50;99.90;;;;;;6185236;23;20436;-84
2022/10/16 04:44:54;;;;;;;3.03;2.80;;;15.50;99.90;;;;;;6185429;23;20418;-84
2022/10/16 04:47:21;;;;;;;2.83;2.43;;;15.50;99.90;;;;;;6185533;23;20425;-84
2022/10/16 04:49:48;;;;;;;3.63;2.30;;;15.50;99.90;;;;;;6185269;23;20513;-84
2022/10/16 04:52:15;;;;;;;3.33;2.40;;;15.60;99.90;;;;;;6185302;23;20434;-84
2022/10/16 04:54:42;;;;;;;2.80;2.67;;;15.60;99.90;;;;;;6185038;23;20445;-84
2022/10/16 04:57:08;;;;;;;4.20;2.57;;;15.60;99.90;;;;;;6184969;23;20418;-84
2022/10/16 04:59:36;;;;;;;3.70;2.30;;;15.60;99.90;;;;;;6184797;23;20405;-84
2022/10/16 05:02:03;;;;;;;3.00;2.10;;;15.60;99.90;;;;;;6185502;23;20500;-84
2022/10/16 05:04:30;;;;;;;2.83;2.67;;;15.60;99.90;;;;;;6184734;23;20564;-85
2022/10/16 05:06:57;;;;;;;2.83;2.43;;;15.60;99.90;;;;;;6184939;23;20424;-85
2022/10/16 05:09:24;;;;;;;2.53;2.43;;;15.60;99.90;;;;;;6184837;23;20418;-85
2022/10/16 05:11:51;;;;;;;2.70;2.50;;;15.60;99.90;;;;;;6185133;23;20435;-85
2022/10/16 05:14:18;;;;;;;3.00;2.67;;;15.60;99.90;;;;;;6184692;23;20501;-85
2022/10/16 05:16:47;;;;;;;2.37;2.27;;;15.60;99.90;;;;;;6185109;23;20418;-85
2022/10/16 05:19:14;;;;;;;2.80;2.57;;;15.60;99.90;;;;;;6184486;23;20418;-85
2022/10/16 05:21:41;;;;;;;7.20;3.27;;;15.50;99.90;;;;;;6185028;23;20521;-85
2022/10/16 05:24:09;;;;;;;3.50;3.20;;;15.50;99.90;;;;;;6185070;23;20500;-85
2022/10/16 05:26:35;;;;;;;2.83;2.63;;;15.50;99.90;;;;;;6184631;23;20424;-85
2022/10/16 05:29:02;;;;;;;2.80;2.60;;;15.50;99.90;;;;;;6184771;23;20420;-85
2022/10/16 05:31:29;;;;;;;2.63;2.30;;;15.50;99.90;;;;;;6185046;23;20434;-85
2022/10/16 05:34:00;;;;;;;2.97;2.67;;;15.50;99.90;;;;;;6184641;23;20484;-84
2022/10/16 05:36:27;;;;;;;2.53;2.30;;;15.50;99.90;;;;;;6184899;23;20441;-84
2022/10/16 05:38:54;;;;;;;2.60;2.40;;;15.40;99.90;;;;;;6183993;23;20417;-84
2022/10/16 05:41:23;;;;;;;3.80;2.80;;;15.40;99.90;;;;;;6184422;23;20444;-85
2022/10/16 05:43:50;;;;;;;2.20;2.00;;;15.40;99.90;;;;;;6184829;23;20905;-85
2022/10/16 05:46:17;;;;;;;2.80;2.60;;;15.40;99.90;;;;;;6184780;23;20494;-85
2022/10/16 05:48:44;;;;;;;3.73;3.00;;;15.30;99.90;;;;;;6184538;23;20416;-85
2022/10/16 05:51:14;;;;;;;2.20;2.10;;;15.30;99.90;;;;;;6184409;23;20438;-85
2022/10/16 05:53:42;;;;;;;7.03;2.47;;;15.30;99.90;;;;;;6186866;23;20398;-85
2022/10/16 05:56:11;;;;;;;2.87;2.67;;;15.30;99.90;;;;;;6191064;23;20541;-85
2022/10/16 05:58:40;;;;;;;3.47;2.47;;;15.30;99.90;;;;;;6190114;23;20452;-85
2022/10/16 06:01:08;;;;;;;2.80;2.57;;;15.30;99.90;;;;;;6190178;23;20441;-85
2022/10/16 06:03:35;;;;;;;2.00;1.90;;;15.40;99.90;;;;;;6187296;23;20493;-84
2022/10/16 06:06:09;;;;;;;2.93;2.60;;;15.40;99.90;;;;;;6186127;23;20419;-85
2022/10/16 06:08:37;;;;;;;3.10;2.40;;;15.40;99.90;;;;;;6189086;23;20394;-85
2022/10/16 06:11:05;;;;;;;2.63;2.20;;;15.50;99.90;;;;;;6191038;23;20436;-85
2022/10/16 06:13:32;;;;;;;3.30;3.00;;;15.50;99.90;;;;;;6188808;23;20437;-85
2022/10/16 06:16:01;;;;;;;2.60;2.50;;;15.50;99.90;;;;;;6186810;23;20774;-85
2022/10/16 06:18:28;;;;;;;2.40;2.20;;;15.50;99.90;;;;;;6184798;23;20425;-85
2022/10/16 06:20:56;;;;;;;7.57;4.30;;;15.50;99.90;;;;;;6185472;23;20440;-85
2022/10/16 06:23:23;;;;;;;3.77;3.40;;;15.50;99.90;;;;;;6184914;23;20425;-85
2022/10/16 06:25:51;;;;;;;3.40;3.20;;;15.60;99.90;;;;;;6184867;23;20409;-85
2022/10/16 06:28:18;;;;;;;3.20;2.93;;;15.60;99.90;;;;;;6184958;23;20432;-85
2022/10/16 06:30:45;;;;;;;6.57;3.40;;;15.60;99.90;;;;;;6184646;23;20500;-85
2022/10/16 06:33:12;;;;;;;3.27;2.97;;;15.60;99.90;;;;;;6184617;23;20457;-85
2022/10/16 06:35:39;;;;;;;4.70;3.30;;;15.60;99.90;;;;;;6184742;23;20445;-85
2022/10/16 06:38:06;;;;;;;3.73;2.73;;;15.60;99.90;;;;;;6184556;23;20414;-85
2022/10/16 06:40:32;;;;;;;2.83;2.63;;;15.70;99.90;;;;;;6184298;23;20881;-85
2022/10/16 06:43:00;;;;;;;3.20;3.00;;;15.80;99.90;;;;;;6184507;23;20418;-85
2022/10/16 06:45:27;;;;;;;3.47;3.17;;;15.80;99.90;;;;;;6184542;23;20411;-85
2022/10/16 06:47:54;;;;;;;4.57;3.10;;;15.90;99.90;;;;;;6185284;23;20582;-86
2022/10/16 06:50:21;;;;;;;3.90;2.40;;;15.90;99.90;;;;;;6187411;23;20413;-85
2022/10/16 06:52:48;;;;;;;2.37;2.27;;;16.00;99.90;;;;;;6184454;23;20429;-85
2022/10/16 06:55:16;;;;;;;5.00;2.37;;;16.10;99.90;;;;;;6186273;23;20442;-85
2022/10/16 06:57:43;;;;;;;6.03;3.20;;;16.10;99.90;;;;;;6186160;23;20505;-85
2022/10/16 07:00:12;;;;;;;3.40;3.10;;;16.20;99.90;;;;;;6187683;23;20525;-86
2022/10/16 07:02:39;;;;;;;3.30;2.60;;;16.30;99.90;;;;;;6187523;23;20524;-86
2022/10/16 07:05:07;;;;;;;2.70;2.50;;;16.30;99.90;;;;;;6186234;23;20438;-84
2022/10/16 07:07:33;;;;;;;3.37;2.60;;;16.40;99.90;;;;;;6188946;23;20414;-85
2022/10/16 07:10:04;;;;;;;3.17;2.87;;;16.50;99.90;;;;;;6186482;23;20735;-86
2022/10/16 07:12:30;;;;;;;3.57;3.10;;;16.60;99.90;;;;;;6185770;23;20441;-85
2022/10/16 07:14:57;;;;;;;3.10;2.80;;;16.70;99.90;;;;;;6186399;23;20420;-85
2022/10/16 07:17:25;;;;;;;3.30;2.47;;;16.80;99.90;;;;;;6187558;23;20492;-85
2022/10/16 07:19:53;;;;;;;3.80;2.63;;;16.90;99.90;;;;;;6187749;23;20394;-85
2022/10/16 07:22:20;;;;;;;3.57;2.30;;;16.90;99.90;;;;;;6186402;23;20438;-84
2022/10/16 07:24:47;;;;;;;2.73;2.50;;;17.00;99.90;;;;;;6186476;23;20496;-85
2022/10/16 07:27:16;;;;;;;3.13;2.23;;;17.10;99.90;;;;;;6186247;23;20413;-83
2022/10/16 07:29:43;;;;;;;2.40;2.30;;;17.20;99.90;;;;;;6186113;23;20779;-87
2022/10/16 07:32:10;;;;;;;2.43;2.33;;;17.20;99.90;;;;;;6185571;23;20536;-85
2022/10/16 07:34:39;;;;;;;5.43;3.40;;;17.30;99.90;;;;;;6185470;23;20471;-87
2022/10/16 07:37:29;;;;;;;2.30;2.10;;;17.30;99.90;;;;;;6185425;23;20451;-86
2022/10/16 07:39:55;;;;;;;3.70;3.40;;;17.40;99.90;;;;;;6187191;23;20395;-87
2022/10/16 07:42:22;;;;;;;2.90;2.67;;;17.30;99.90;;;;;;6185687;23;20428;-83
2022/10/16 07:44:49;;;;;;;4.03;3.00;;;17.40;99.90;;;;;;6185423;23;20419;-83
2022/10/16 07:47:16;;;;;;;3.90;2.30;;;17.40;99.90;;;;;;6188854;23;20413;-83
2022/10/16 07:49:44;;;;;;;2.70;2.43;;;17.40;99.90;;;;;;6187418;23;20903;-86
2022/10/16 07:52:11;;;;;;;3.17;2.63;;;17.50;99.90;;;;;;6185215;23;20434;-83
2022/10/16 07:54:37;;;;;;;3.00;2.40;;;17.50;99.90;;;;;;6185341;23;20422;-84
2022/10/16 07:57:04;;;;;;;4.23;2.90;;;17.50;99.90;;;;;;6185036;23;20987;-84
2022/10/16 07:59:31;;;;;;;2.67;2.47;;;17.60;99.90;;;;;;6185261;23;20502;-84
2022/10/16 08:01:58;;;;;;;3.60;2.60;;;17.60;99.90;;;;;;6185483;23;20521;-84
2022/10/16 08:04:25;;;;;;;2.63;2.43;;;17.70;99.90;;;;;;6185278;23;20522;-84
2022/10/16 08:06:54;;;;;;;2.77;2.57;;;17.60;99.90;;;;;;6185346;23;20757;-84
2022/10/16 08:09:20;;;;;;;3.33;3.10;;;17.60;99.90;;;;;;6184944;23;20485;-84
2022/10/16 08:11:47;;;;;;;3.57;2.30;;;17.70;99.90;;;;;;6185534;23;20829;-84
2022/10/16 08:14:14;;;;;;;2.60;2.40;;;17.70;99.90;;;;;;6185244;23;20420;-84
2022/10/16 08:16:41;;;;;;;2.40;2.10;;;17.70;99.90;;;;;;6184421;23;20451;-84
2022/10/16 08:19:08;;;;;;;2.33;2.13;;;17.80;99.90;;;;;;6184089;23;20422;-85
2022/10/16 08:21:34;;;;;;;2.70;2.50;;;17.90;99.90;;;;;;6184583;23;20470;-85
2022/10/16 08:24:03;;;;;;;3.30;3.00;;;18.10;99.90;;;;;;6184528;23;20423;-85
2022/10/16 08:26:29;;;;;;;3.23;2.50;;;18.20;99.90;;;;;;6184843;23;20416;-85
2022/10/16 08:28:56;;;;;;;4.80;2.50;;;18.40;99.90;;;;;;6184915;23;20419;-85
2022/10/16 08:31:24;;;;;;;3.50;2.10;;;18.50;99.90;;;;;;6184956;23;20438;-85
2022/10/16 08:33:52;;;;;;;3.43;2.87;;;18.60;99.90;;;;;;6184996;23;20518;-85
2022/10/16 08:36:18;;;;;;;3.60;3.17;;;18.80;99.90;;;;;;6186605;23;20444;-83
2022/10/16 08:38:49;;;;;;;4.37;2.40;;;19.00;99.90;;;;;;6185777;23;20419;-83
2022/10/16 08:45:16;;;;;;;1.67;1.57;;;19.20;99.90;;;;;;6185716;23;20399;-85
2022/10/16 08:47:50;;;;;;;3.60;2.30;;;19.30;99.90;;;;;;6185245;23;20443;-84
2022/10/16 08:50:23;;;;;;;2.40;2.20;;;19.40;99.90;;;;;;6185910;23;20400;-84
2022/10/16 08:52:51;;;;;;;2.73;2.17;;;19.50;99.90;;;;;;6185518;23;20433;-84
2022/10/16 08:55:33;;;;;;;4.43;2.17;;;19.60;99.90;;;;;;6185962;23;20503;-84
2022/10/16 08:58:00;;;;;;;1.87;1.77;;;19.60;99.90;;;;;;6185345;23;20397;-84
2022/10/16 09:00:29;;;;;;;2.63;2.43;;;19.70;99.90;;;;;;6185205;23;20462;-85
2022/10/16 09:03:05;;;;;;;2.40;1.97;;;19.70;99.90;;;;;;6185728;23;20409;-85
2022/10/16 09:06:02;;;;;;;1.93;1.83;;;19.80;99.90;;;;;;6185216;23;20401;-85
2022/10/16 09:08:35;;;;;;;2.50;2.30;;;19.90;99.90;;;;;;6185157;23;20396;-85
2022/10/16 09:11:12;;;;;;;2.47;1.83;;;20.10;99.90;;;;;;6185138;23;20435;-85
2022/10/16 09:13:48;;;;;;;2.53;2.23;;;20.30;99.90;;;;;;6185192;23;20770;-86
2022/10/16 09:16:24;;;;;;;1.73;1.43;;;20.40;99.90;;;;;;6184567;23;20947;-86
2022/10/16 09:18:59;;;;;;;2.17;1.70;;;20.50;99.90;;;;;;6185109;23;20378;-84
2022/10/16 09:21:29;;;;;;;2.03;1.83;;;20.60;99.90;;;;;;6185293;23;20427;-84
2022/10/16 09:24:00;;;;;;;2.70;1.73;;;20.60;99.90;;;;;;6184486;23;20405;-84
2022/10/16 09:26:27;;;;;;;2.90;1.77;;;20.50;99.90;;;;;;6185007;23;20410;-83
2022/10/16 09:28:54;;;;;;;5.20;2.00;;;20.50;99.90;;;;;;6184169;23;20414;-84
2022/10/16 09:31:23;;;;;;;1.73;1.40;;;20.40;99.90;;;;;;6185312;23;20466;-84
2022/10/16 09:33:55;;;;;;;1.93;1.83;;;20.50;99.90;;;;;;6185168;23;20417;-84
2022/10/16 09:36:24;;;;;;;2.27;2.13;;;20.50;99.90;;;;;;6184827;23;20449;-83
2022/10/16 09:38:53;;;;;;;2.30;2.17;;;20.50;99.90;;;;;;6184840;23;20410;-83
2022/10/16 09:41:22;;;;;;;1.80;1.70;;;20.50;99.90;;;;;;6184882;23;20516;-83
2022/10/16 09:43:54;;;;;;;1.70;1.50;;;20.50;99.90;;;;;;6185016;23;20417;-83
2022/10/16 09:46:27;;;;;;;1.90;1.80;;;20.70;99.90;;;;;;6184471;23;20862;-83
2022/10/16 09:48:57;;;;;;;1.77;1.67;;;20.90;99.90;;;;;;6184354;23;20398;-84
2022/10/16 09:51:27;;;;;;;1.87;1.73;;;21.00;99.90;;;;;;6183916;23;20430;-84
2022/10/16 09:54:00;;;;;;;2.60;1.43;;;21.10;99.90;;;;;;6184804;23;20401;-84
2022/10/16 09:56:29;;;;;;;2.17;1.73;;;21.20;99.90;;;;;;6184932;23;20446;-84
2022/10/16 09:58:57;;;;;;;2.20;1.47;;;21.30;99.90;;;;;;6184808;23;20437;-83
2022/10/16 10:01:32;;;;;;;2.53;1.33;;;21.50;99.90;;;;;;6184958;23;20446;-84
2022/10/16 10:04:02;;;;;;;1.40;1.40;;;21.80;99.90;;;;;;6185013;23;20426;-83
2022/10/16 10:06:32;;;;;;;2.23;1.47;;;22.00;99.90;;;;;;6184488;23;20862;-84
2022/10/16 10:09:03;;;;;;;2.53;2.23;;;22.20;99.90;;;;;;6184502;23;20506;-84
2022/10/16 10:11:49;;;;;;;2.90;1.90;;;22.30;99.90;;;;;;6184475;23;20415;-83
2022/10/16 10:14:29;;;;;;;7.30;1.73;;;22.60;99.90;;;;;;6184751;23;20397;-83
2022/10/16 10:17:14;;;;;;;1.67;1.57;;;22.70;99.90;;;;;;6183426;23;20487;-83
2022/10/16 10:19:45;;;;;;;1.60;1.30;;;22.70;99.90;;;;;;6183949;23;20431;-83
2022/10/16 10:22:29;;;;;;;1.50;1.40;;;22.80;99.90;;;;;;6184795;23;20436;-83
2022/10/16 10:25:15;;;;;;;4.50;1.30;;;23.00;99.90;;;;;;6184738;23;20718;-84
2022/10/16 10:28:02;;;;;;;1.50;1.40;;;23.10;99.90;;;;;;6184022;23;20397;-83
2022/10/16 10:30:39;;;;;;;2.30;1.43;;;23.10;99.90;;;;;;6159831;23;20421;-83
2022/10/16 10:33:29;;;;;;;1.63;1.53;;;23.20;99.90;;;;;;6185272;23;20714;-84
2022/10/16 10:36:09;;;;;;;1.60;1.50;;;23.30;99.90;;;;;;6186832;23;20394;-83
2022/10/16 10:38:42;;;;;;;1.63;1.30;;;23.40;99.80;;;;;;6184988;23;20394;-84
2022/10/16 10:41:34;;;;;;;1.30;1.20;;;23.50;99.90;;;;;;6184657;23;20434;-84
2022/10/16 10:44:12;;;;;;;1.03;1.03;;;23.50;98.20;;;;;;6125058;23;20419;-83
2022/10/16 10:46:45;;;;;;;1.50;1.40;;;23.50;97.90;;;;;;6186186;23;20393;-83
2022/10/16 10:49:27;;;;;;;2.20;1.43;;;23.50;97.90;;;;;;6188064;23;20944;-84
2022/10/16 10:52:02;;;;;;;4.33;1.57;;;23.60;97.20;;;;;;6188314;23;20430;-83
2022/10/16 10:54:36;;;;;;;1.37;1.27;;;23.80;98.00;;;;;;6188484;23;20487;-84
2022/10/16 10:57:07;;;;;;;1.23;1.13;;;24.40;97.40;;;;;;6187475;23;20435;-84
2022/10/16 10:59:55;;;;;;;1.30;1.20;;;24.80;95.70;;;;;;6187516;23;20867;-82
2022/10/16 11:02:27;;;;;;;3.40;1.40;;;25.50;94.00;;;;;;6187331;23;20464;-86
2022/10/16 11:05:24;;;;;;;1.20;1.10;;;26.00;94.30;;;;;;6192829;23;20403;-86
2022/10/16 11:07:54;;;;;;;1.30;1.20;;;26.60;92.60;;;;;;6192002;23;20397;-85
2022/10/16 11:10:25;;;;;;;1.60;1.50;;;27.00;91.50;;;;;;6192478;23;20394;-86
2022/10/16 11:12:56;;;;;;;1.13;1.03;;;27.50;90.00;;;;;;6191291;23;20433;-85
2022/10/16 11:15:28;;;;;;;1.50;1.40;;;28.00;87.40;;;;;;6191579;23;20407;-83
2022/10/16 11:18:00;;;;;;;1.50;1.40;;;28.20;87.70;;;;;;6193601;23;20447;-84
2022/10/16 11:20:30;;;;;;;1.50;1.40;;;28.10;84.20;;;;;;6194827;23;20402;-85
2022/10/16 11:23:03;;;;;;;1.57;1.40;;;28.10;84.70;;;;;;6194440;23;20723;-85
2022/10/16 11:25:32;;;;;;;1.47;1.37;;;27.80;85.70;;;;;;6194461;23;20399;-85
2022/10/16 11:28:04;;;;;;;2.37;1.40;;;27.80;88.20;;;;;;6194625;23;20422;-83
2022/10/16 11:30:34;;;;;;;1.87;1.60;;;27.80;84.30;;;;;;6194998;23;20489;-83
2022/10/16 11:33:20;;;;;;;1.93;1.83;;;27.90;85.80;;;;;;6193897;23;20432;-84
2022/10/16 11:35:53;;;;;;;2.30;2.10;;;27.90;85.10;;;;;;6194129;23;20469;-84
2022/10/16 11:38:28;;;;;;;1.97;1.80;;;27.70;84.70;;;;;;6194606;23;20422;-84
2022/10/16 11:41:00;;;;;;;2.60;2.07;;;27.60;84.90;;;;;;6196796;23;20428;-85
2022/10/16 11:43:31;;;;;;;1.70;1.60;;;27.70;86.00;;;;;;6194010;23;20402;-85
2022/10/16 11:46:03;;;;;;;1.90;1.80;;;27.60;85.70;;;;;;6194078;23;20504;-85
2022/10/16 11:48:37;;;;;;;1.50;1.40;;;27.50;86.20;;;;;;6194993;23;20515;-83
2022/10/16 11:51:15;;;;;;;3.20;2.00;;;27.80;86.50;;;;;;6193252;23;20401;-83
2022/10/16 11:53:49;;;;;;;2.23;1.50;;;28.50;85.90;;;;;;6193693;23;20401;-84
2022/10/16 11:56:19;;;;;;;1.70;1.57;;;29.40;80.80;;;;;;6201336;23;20390;-85
2022/10/16 11:58:55;;;;;;;2.43;1.30;;;29.50;79.10;;;;;;6194828;23;20484;-82
2022/10/16 12:01:30;;;;;;;1.67;1.57;;;29.70;77.10;;;;;;6193345;23;20467;-83
2022/10/16 12:04:07;;;;;;;1.70;1.60;;;30.00;78.10;;;;;;6192711;23;20409;-84
2022/10/16 12:06:41;;;;;;;2.70;2.30;;;30.60;74.10;;;;;;6193002;23;20808;-84
2022/10/16 12:09:18;;;;;;;1.40;1.30;;;31.10;73.70;;;;;;6191276;23;20877;-82
2022/10/16 12:11:45;;;;;;;1.60;1.50;;;31.50;71.70;;;;;;6192512;23;20431;-84
2022/10/16 12:14:35;;;;;;;1.50;1.40;;;31.80;68.80;;;;;;6193853;23;20502;-81
2022/10/16 12:17:05;;;;;;;5.57;1.53;;;31.90;69.10;;;;;;6193261;23;20425;-83
2022/10/16 12:19:32;;;;;;;2.07;1.80;;;31.80;67.30;;;;;;6194135;23;20400;-82
2022/10/16 12:22:03;;;;;;;1.13;1.10;;;31.90;67.60;;;;;;6193419;23;20429;-83
2022/10/16 12:24:36;;;;;;;1.30;1.30;;;32.20;67.00;;;;;;6192249;23;20399;-82
2022/10/16 12:27:04;;;;;;;1.57;1.37;;;32.80;64.30;;;;;;6192489;23;20437;-82
2022/10/16 12:29:35;;;;;;;3.33;1.47;;;32.70;60.70;;;;;;6193030;23;20748;-83
2022/10/16 12:32:04;;;;;;;1.77;1.30;;;32.30;61.70;;;;;;6192608;23;20432;-82
2022/10/16 12:34:38;;;;;;;1.63;1.53;;;32.10;62.50;;;;;;6192613;23;20508;-82
2022/10/16 12:37:22;;;;;;;1.60;1.50;;;32.00;61.40;;;;;;6193165;23;20401;-82
2022/10/16 12:39:49;;;;;;;1.37;1.30;;;31.90;60.90;;;;;;6193666;23;20402;-83
2022/10/16 12:42:33;;;;;;;3.03;1.20;;;32.10;61.70;;;;;;6193197;23;20432;-83
2022/10/16 12:45:00;;;;;;;1.63;1.53;;;32.50;61.30;;;;;;6193629;23;20396;-82
2022/10/16 12:47:38;;;;;;;1.60;1.23;;;32.80;61.80;;;;;;6192035;23;20448;-83
2022/10/16 12:50:25;;;;;;;1.60;1.50;;;33.20;59.90;;;;;;6194469;23;20392;-81
2022/10/16 12:52:54;;;;;;;2.37;1.23;;;33.40;57.60;;;;;;6201552;23;20422;-83
2022/10/16 12:55:22;;;;;;;1.67;1.30;;;33.20;59.10;;;;;;6195066;23;20498;-83
2022/10/16 12:58:20;;;;;;;1.77;1.67;;;32.80;59.50;;;;;;6193836;23;20863;-83
2022/10/16 13:00:55;;;;;;;1.10;1.10;;;32.10;59.80;;;;;;6184548;23;20419;-83
2022/10/16 13:03:44;;;;;;;1.57;1.50;;;30.40;60.10;;;;;;6193567;23;20396;-82
2022/10/16 13:06:23;;;;;;;1.97;1.60;;;29.80;64.40;;;;;;6193692;23;20394;-83
2022/10/16 13:09:14;;;;;;;1.20;1.20;;;29.20;66.20;;;;;;6192993;23;20434;-80